Time;durP1;ratioP1;P1;durP2;ratioP2;P2;SDS_P1;SDS_P2;PMS_P1;PMS_P2;Temp;Humidity;BMP_temperature;BMP_pressure;BME280_temperature;BME280_humidity;BME280_pressure;Samples;Min_cycle;Max_cycle;Signal;HPM_P1;HPM_P2
2021/07/07 00:02:02;;;;;;;2.45;1.30;;;24.00;63.60;;;;;;4994951;28;20019;-26
2021/07/07 00:04:28;;;;;;;3.30;1.27;;;24.10;63.20;;;;;;4994720;28;20393;-29
2021/07/07 00:06:54;;;;;;;0.93;0.90;;;24.10;63.00;;;;;;4994805;28;20034;-28
2021/07/07 00:09:19;;;;;;;2.45;1.02;;;24.10;63.20;;;;;;4994785;28;20033;-25
2021/07/07 00:11:45;;;;;;;3.92;1.05;;;24.00;63.30;;;;;;4995462;28;20058;-31
2021/07/07 00:14:11;;;;;;;1.33;0.90;;;24.00;63.20;;;;;;4994764;28;20505;-25
2021/07/07 00:16:37;;;;;;;1.65;0.98;;;24.00;63.40;;;;;;4994784;28;20030;-30
2021/07/07 00:19:03;;;;;;;1.55;1.15;;;24.00;63.40;;;;;;4994530;28;20094;-28
2021/07/07 00:21:28;;;;;;;1.40;1.00;;;24.00;63.20;;;;;;4994557;28;20045;-30
2021/07/07 00:23:54;;;;;;;1.35;0.88;;;24.10;63.10;;;;;;4994463;28;20101;-29
2021/07/07 00:26:19;;;;;;;2.17;1.20;;;24.00;63.20;;;;;;4994396;28;20046;-29
2021/07/07 00:28:45;;;;;;;2.05;0.80;;;24.00;63.40;;;;;;4994315;28;20503;-28
2021/07/07 00:31:11;;;;;;;2.08;1.10;;;24.00;63.60;;;;;;4994668;28;20042;-27
2021/07/07 00:33:36;;;;;;;2.03;0.77;;;23.90;63.70;;;;;;4993743;28;20046;-30
2021/07/07 00:36:02;;;;;;;2.10;1.30;;;23.90;63.60;;;;;;4994529;28;20038;-25
2021/07/07 00:38:28;;;;;;;1.50;0.85;;;23.80;63.70;;;;;;4994931;28;20456;-32
2021/07/07 00:40:53;;;;;;;1.58;1.00;;;23.90;63.70;;;;;;4993797;28;20085;-26
2021/07/07 00:43:19;;;;;;;1.30;0.88;;;23.90;63.70;;;;;;4994121;28;20493;-26
2021/07/07 00:45:44;;;;;;;1.45;1.08;;;23.90;63.40;;;;;;4994100;28;20037;-28
2021/07/07 00:48:10;;;;;;;1.08;0.90;;;23.80;63.70;;;;;;4993987;28;20030;-28
2021/07/07 00:50:36;;;;;;;1.95;0.93;;;23.80;63.90;;;;;;4995054;28;20481;-27
2021/07/07 00:53:01;;;;;;;1.33;1.05;;;23.80;63.80;;;;;;4994228;28;20019;-29
2021/07/07 00:55:27;;;;;;;1.17;1.02;;;23.80;63.60;;;;;;4994072;28;20026;-27
2021/07/07 00:57:52;;;;;;;1.65;0.85;;;23.80;63.90;;;;;;4993999;28;20081;-30
2021/07/07 01:00:20;;;;;;;1.33;0.80;;;23.80;63.80;;;;;;4993643;28;20489;-26
2021/07/07 01:02:46;;;;;;;0.93;0.77;;;23.80;63.50;;;;;;4994122;28;20109;-33
2021/07/07 01:05:13;;;;;;;1.25;1.00;;;23.90;63.50;;;;;;4960511;28;20022;-26
2021/07/07 01:07:39;;;;;;;3.00;1.13;;;23.90;63.60;;;;;;4993830;28;20034;-31
2021/07/07 01:10:06;;;;;;;1.15;0.88;;;23.80;63.70;;;;;;4993741;28;20040;-33
2021/07/07 01:12:32;;;;;;;0.80;0.80;;;23.80;63.80;;;;;;4994862;28;20027;-27
2021/07/07 01:15:00;;;;;;;0.70;0.70;;;23.80;63.60;;;;;;4993805;28;20055;-29
2021/07/07 01:17:29;;;;;;;1.75;0.88;;;23.70;63.80;;;;;;4992069;28;20018;-29
2021/07/07 01:19:54;;;;;;;2.35;0.75;;;23.70;64.10;;;;;;4991856;28;20401;-29
2021/07/07 01:22:20;;;;;;;1.30;1.10;;;23.70;63.80;;;;;;4993608;28;20026;-27
2021/07/07 01:24:45;;;;;;;1.35;1.10;;;23.70;63.60;;;;;;4992881;28;20022;-28
2021/07/07 01:27:11;;;;;;;1.77;0.85;;;23.70;63.90;;;;;;4993064;28;20579;-31
2021/07/07 01:29:37;;;;;;;0.95;0.90;;;23.70;64.10;;;;;;4994023;28;20580;-29
2021/07/07 01:32:02;;;;;;;0.80;0.80;;;23.60;64.20;;;;;;4993160;28;20385;-28
2021/07/07 01:34:28;;;;;;;0.82;0.68;;;23.50;64.30;;;;;;4993060;28;20121;-27
2021/07/07 01:36:54;;;;;;;1.58;0.77;;;23.50;64.50;;;;;;4993249;28;20062;-25
2021/07/07 01:39:19;;;;;;;1.05;0.90;;;23.50;65.10;;;;;;4993037;28;20042;-29
2021/07/07 01:41:45;;;;;;;1.00;0.88;;;23.60;64.10;;;;;;4978245;28;20033;-27
2021/07/07 01:44:10;;;;;;;1.83;0.60;;;23.50;64.30;;;;;;4991198;28;20524;-30
2021/07/07 01:46:36;;;;;;;1.10;1.00;;;23.50;64.40;;;;;;4992785;28;20038;-27
2021/07/07 01:49:01;;;;;;;1.55;1.00;;;23.60;64.20;;;;;;4993033;28;20022;-29
2021/07/07 01:51:27;;;;;;;1.35;0.90;;;23.60;64.00;;;;;;4993169;28;20030;-32
2021/07/07 01:53:53;;;;;;;1.55;0.80;;;23.60;63.90;;;;;;4993646;28;20025;-30
2021/07/07 01:56:18;;;;;;;1.25;0.98;;;23.50;64.20;;;;;;4993278;28;20058;-38
2021/07/07 01:58:44;;;;;;;0.65;0.63;;;23.50;64.30;;;;;;4992316;28;20530;-30
2021/07/07 02:01:11;;;;;;;0.73;0.68;;;23.50;64.20;;;;;;4992415;28;20038;-27
2021/07/07 02:03:37;;;;;;;1.70;0.70;;;23.50;64.20;;;;;;4992907;28;20038;-30
2021/07/07 02:06:02;;;;;;;1.00;1.00;;;23.40;64.40;;;;;;4992716;28;20076;-27
2021/07/07 02:08:28;;;;;;;0.85;0.85;;;23.40;64.20;;;;;;4993448;28;20026;-30
2021/07/07 02:10:54;;;;;;;0.65;0.65;;;23.40;65.30;;;;;;4992341;28;20026;-31
2021/07/07 02:13:20;;;;;;;0.60;0.55;;;23.30;64.70;;;;;;4992343;28;20097;-28
2021/07/07 02:15:45;;;;;;;0.88;0.80;;;23.30;64.70;;;;;;4992493;28;20105;-27
2021/07/07 02:18:11;;;;;;;0.93;0.82;;;23.30;64.70;;;;;;4992635;28;20497;-25
2021/07/07 02:20:40;;;;;;;1.98;0.60;;;23.30;64.50;;;;;;4992941;28;20033;-28
2021/07/07 02:23:06;;;;;;;0.80;0.75;;;23.30;64.50;;;;;;4992348;28;20041;-28
2021/07/07 02:25:33;;;;;;;1.50;0.60;;;23.20;64.70;;;;;;4992339;28;20042;-30
2021/07/07 02:27:58;;;;;;;1.50;1.08;;;23.30;64.80;;;;;;4992313;28;20156;-30
2021/07/07 02:30:26;;;;;;;1.23;0.50;;;23.30;64.70;;;;;;4992380;28;20113;-29
2021/07/07 02:32:52;;;;;;;0.60;0.52;;;23.20;64.60;;;;;;4993060;28;20053;-27
2021/07/07 02:35:21;;;;;;;1.17;0.68;;;23.20;64.60;;;;;;4991963;28;20441;-27
2021/07/07 02:37:50;;;;;;;0.77;0.57;;;23.20;64.70;;;;;;4992333;28;20022;-30
2021/07/07 02:40:16;;;;;;;0.60;0.60;;;23.30;64.50;;;;;;4991898;28;20125;-27
2021/07/07 02:42:41;;;;;;;0.52;0.52;;;23.30;64.50;;;;;;4991717;28;20105;-26
2021/07/07 02:45:08;;;;;;;0.65;0.60;;;23.30;64.40;;;;;;4992215;28;20026;-33
2021/07/07 02:47:34;;;;;;;0.60;0.60;;;23.20;64.40;;;;;;4990633;28;20520;-25
2021/07/07 02:49:59;;;;;;;0.40;0.40;;;23.20;64.60;;;;;;4991921;28;20030;-31
2021/07/07 02:52:25;;;;;;;0.60;0.60;;;23.20;64.60;;;;;;4992210;28;20037;-28
2021/07/07 02:54:50;;;;;;;0.60;0.55;;;23.20;64.70;;;;;;4992048;28;20567;-25
2021/07/07 02:57:16;;;;;;;0.68;0.63;;;23.10;64.50;;;;;;4991987;28;20041;-33
2021/07/07 02:59:42;;;;;;;0.63;0.63;;;23.20;64.50;;;;;;4992502;28;20113;-27
2021/07/07 03:02:08;;;;;;;0.77;0.50;;;23.10;64.50;;;;;;4991785;28;20019;-31
2021/07/07 03:04:34;;;;;;;0.63;0.55;;;23.10;64.50;;;;;;4991874;28;20034;-32
2021/07/07 03:07:00;;;;;;;0.65;0.65;;;23.20;64.40;;;;;;4991846;28;20038;-26
2021/07/07 03:09:26;;;;;;;0.63;0.55;;;23.10;64.40;;;;;;4992192;28;20109;-30
2021/07/07 03:11:51;;;;;;;1.35;0.63;;;23.10;64.40;;;;;;4992415;28;20427;-31
2021/07/07 03:14:17;;;;;;;0.60;0.50;;;23.10;64.50;;;;;;4991864;28;20036;-27
2021/07/07 03:16:42;;;;;;;0.68;0.55;;;23.10;64.40;;;;;;4990208;28;20030;-30
2021/07/07 03:19:08;;;;;;;1.40;0.60;;;23.10;64.50;;;;;;4991664;28;20030;-28
2021/07/07 03:21:34;;;;;;;1.13;0.70;;;23.10;64.40;;;;;;4991536;28;20109;-30
2021/07/07 03:23:59;;;;;;;0.88;0.70;;;23.10;64.50;;;;;;4992005;28;20474;-29
2021/07/07 03:26:25;;;;;;;0.65;0.60;;;23.00;64.60;;;;;;4992096;28;20042;-29
2021/07/07 03:28:50;;;;;;;0.80;0.75;;;23.00;64.40;;;;;;4991308;28;20431;-34
2021/07/07 03:31:16;;;;;;;0.50;0.50;;;23.00;64.50;;;;;;4991352;28;20092;-29
2021/07/07 03:33:41;;;;;;;0.65;0.57;;;23.00;64.50;;;;;;4991642;28;20509;-34
2021/07/07 03:36:07;;;;;;;0.50;0.50;;;23.00;64.60;;;;;;4991732;28;20030;-31
2021/07/07 03:38:33;;;;;;;0.57;0.50;;;23.00;64.50;;;;;;4992167;28;20042;-25
2021/07/07 03:40:59;;;;;;;1.15;0.50;;;23.00;64.50;;;;;;4990740;28;20393;-27
2021/07/07 03:43:24;;;;;;;1.00;0.60;;;23.00;64.60;;;;;;4991488;28;20468;-25
2021/07/07 03:45:50;;;;;;;1.10;0.80;;;23.00;64.50;;;;;;4991487;28;20130;-29
2021/07/07 03:48:15;;;;;;;0.70;0.50;;;23.00;64.40;;;;;;4991727;28;20033;-27
2021/07/07 03:50:41;;;;;;;0.52;0.50;;;23.00;64.30;;;;;;4992141;28;20022;-32
2021/07/07 03:53:07;;;;;;;1.27;0.50;;;23.00;64.40;;;;;;4991614;28;20668;-28
2021/07/07 03:55:33;;;;;;;0.63;0.50;;;23.00;64.40;;;;;;4991239;28;20390;-25
2021/07/07 03:57:59;;;;;;;0.65;0.60;;;23.00;64.40;;;;;;4991456;28;20050;-31
2021/07/07 04:00:26;;;;;;;0.93;0.80;;;22.90;64.40;;;;;;4991046;28;20661;-27
2021/07/07 04:02:55;;;;;;;0.50;0.50;;;23.00;64.40;;;;;;4991986;28;20042;-28
2021/07/07 04:05:21;;;;;;;0.52;0.50;;;22.90;64.40;;;;;;4991487;28;20030;-27
2021/07/07 04:07:47;;;;;;;0.82;0.50;;;22.90;64.50;;;;;;4992713;28;20030;-30
2021/07/07 04:10:13;;;;;;;0.60;0.60;;;22.90;64.40;;;;;;4994632;28;20015;-27
2021/07/07 04:12:40;;;;;;;0.68;0.68;;;22.90;64.40;;;;;;4994894;28;20038;-28
2021/07/07 04:15:06;;;;;;;0.75;0.60;;;22.90;64.40;;;;;;4997862;28;20018;-27
2021/07/07 04:17:32;;;;;;;0.65;0.65;;;22.90;64.30;;;;;;4995227;28;20045;-31
2021/07/07 04:19:57;;;;;;;0.85;0.50;;;22.90;64.40;;;;;;4994135;28;20109;-28
2021/07/07 04:22:23;;;;;;;0.77;0.55;;;22.90;64.20;;;;;;4994776;28;20121;-29
2021/07/07 04:24:49;;;;;;;0.60;0.60;;;22.90;64.20;;;;;;4994251;28;20489;-29
2021/07/07 04:27:14;;;;;;;0.55;0.35;;;22.90;64.30;;;;;;4994543;28;20053;-32
2021/07/07 04:29:40;;;;;;;0.63;0.40;;;22.90;64.30;;;;;;4994909;28;20571;-27
2021/07/07 04:32:06;;;;;;;0.40;0.40;;;22.90;64.30;;;;;;4994357;28;20446;-29
2021/07/07 04:34:32;;;;;;;0.60;0.50;;;22.80;64.40;;;;;;4994135;28;20416;-33
2021/07/07 04:36:57;;;;;;;0.75;0.60;;;22.90;64.30;;;;;;4994472;28;20030;-32
2021/07/07 04:39:23;;;;;;;0.43;0.43;;;22.90;64.20;;;;;;4994261;28;20031;-27
2021/07/07 04:41:48;;;;;;;0.52;0.40;;;22.90;64.20;;;;;;4995002;28;20034;-33
2021/07/07 04:44:14;;;;;;;0.55;0.43;;;22.80;64.20;;;;;;4994170;28;20045;-28
2021/07/07 04:46:40;;;;;;;0.50;0.47;;;22.90;64.20;;;;;;4994052;28;20552;-32
2021/07/07 04:49:05;;;;;;;0.30;0.30;;;22.80;64.20;;;;;;4993197;28;20033;-29
2021/07/07 04:51:31;;;;;;;0.50;0.43;;;22.80;64.20;;;;;;4994151;28;20042;-31
2021/07/07 04:53:57;;;;;;;0.60;0.60;;;22.80;65.10;;;;;;4977048;28;20028;-30
2021/07/07 04:56:22;;;;;;;1.02;0.82;;;22.80;64.20;;;;;;4993932;28;20034;-29
2021/07/07 04:58:48;;;;;;;0.40;0.40;;;22.80;64.20;;;;;;4993728;28;20073;-31
2021/07/07 05:01:13;;;;;;;0.88;0.50;;;22.80;64.20;;;;;;4993916;28;20468;-27
2021/07/07 05:03:39;;;;;;;0.50;0.40;;;22.80;64.10;;;;;;4993827;28;20026;-29
2021/07/07 05:06:05;;;;;;;0.50;0.47;;;22.80;64.20;;;;;;4993807;28;20030;-27
2021/07/07 05:08:30;;;;;;;0.40;0.40;;;22.80;64.10;;;;;;4994270;28;20030;-30
2021/07/07 05:10:56;;;;;;;0.50;0.50;;;22.80;64.10;;;;;;4993621;28;20038;-33
2021/07/07 05:13:22;;;;;;;1.10;0.50;;;22.80;64.20;;;;;;4993650;28;20058;-29
2021/07/07 05:15:47;;;;;;;1.13;0.55;;;22.80;64.10;;;;;;4993923;28;20034;-35
2021/07/07 05:18:14;;;;;;;0.88;0.50;;;22.80;64.90;;;;;;4975581;28;20061;-30
2021/07/07 05:20:39;;;;;;;1.60;0.60;;;22.80;64.20;;;;;;4993059;28;20041;-31
2021/07/07 05:23:07;;;;;;;1.85;0.47;;;22.70;64.10;;;;;;4993315;28;20026;-30
2021/07/07 05:25:37;;;;;;;1.27;0.50;;;22.80;64.20;;;;;;4993279;28;20046;-29
2021/07/07 05:28:03;;;;;;;0.80;0.50;;;22.70;64.20;;;;;;4993351;28;20027;-29
2021/07/07 05:30:29;;;;;;;0.60;0.52;;;22.80;64.30;;;;;;4993289;28;20121;-29
2021/07/07 05:32:55;;;;;;;0.68;0.47;;;22.70;64.20;;;;;;4993837;28;20510;-29
2021/07/07 05:35:20;;;;;;;0.30;0.30;;;22.70;64.30;;;;;;4993425;28;20045;-28
2021/07/07 05:37:46;;;;;;;0.40;0.40;;;22.70;64.30;;;;;;4992694;28;20069;-30
2021/07/07 05:40:12;;;;;;;2.30;0.40;;;22.70;64.20;;;;;;4993158;28;20030;-27
2021/07/07 05:42:38;;;;;;;0.60;0.50;;;22.70;64.20;;;;;;4992627;28;20038;-28
2021/07/07 05:45:04;;;;;;;0.50;0.50;;;22.70;64.20;;;;;;4993244;28;20029;-30
2021/07/07 05:47:30;;;;;;;0.65;0.50;;;22.70;64.10;;;;;;4992729;28;20034;-27
2021/07/07 05:49:56;;;;;;;0.40;0.40;;;22.70;64.30;;;;;;4992755;28;20022;-34
2021/07/07 05:52:24;;;;;;;0.70;0.50;;;22.70;64.30;;;;;;4992618;28;20026;-30
2021/07/07 05:54:50;;;;;;;0.40;0.40;;;22.70;64.20;;;;;;4992958;28;20015;-30
2021/07/07 05:57:15;;;;;;;0.30;0.30;;;22.70;64.20;;;;;;4992867;28;20576;-34
2021/07/07 05:59:41;;;;;;;0.40;0.40;;;22.70;64.20;;;;;;4993259;28;20037;-30
2021/07/07 06:02:06;;;;;;;0.40;0.40;;;22.70;64.20;;;;;;4992219;28;20080;-30
2021/07/07 06:04:32;;;;;;;0.43;0.40;;;22.70;64.20;;;;;;4992579;28;20022;-29
2021/07/07 06:06:57;;;;;;;0.55;0.50;;;22.70;64.20;;;;;;4992306;28;20409;-30
2021/07/07 06:09:23;;;;;;;0.68;0.40;;;22.70;64.20;;;;;;4992905;28;20030;-29
2021/07/07 06:11:50;;;;;;;0.45;0.35;;;22.70;64.30;;;;;;4993297;28;20042;-29
2021/07/07 06:14:16;;;;;;;0.40;0.38;;;22.70;64.20;;;;;;4992426;28;20037;-28
2021/07/07 06:16:42;;;;;;;0.65;0.57;;;22.70;64.30;;;;;;4992248;28;20041;-31
2021/07/07 06:19:08;;;;;;;0.47;0.47;;;22.70;64.20;;;;;;4991995;28;20510;-28
2021/07/07 06:21:33;;;;;;;0.50;0.40;;;22.70;64.10;;;;;;4992367;28;20030;-32
2021/07/07 06:23:59;;;;;;;0.50;0.40;;;22.70;64.20;;;;;;4992531;28;20449;-27
2021/07/07 06:26:28;;;;;;;0.52;0.43;;;22.70;64.30;;;;;;4992436;28;20038;-28
2021/07/07 06:28:54;;;;;;;0.60;0.50;;;22.60;64.30;;;;;;4990352;28;20117;-33
2021/07/07 06:31:24;;;;;;;1.38;0.50;;;22.60;64.30;;;;;;4972957;28;20054;-33
2021/07/07 06:33:49;;;;;;;0.43;0.40;;;22.70;64.20;;;;;;4990974;28;20054;-28
2021/07/07 06:36:15;;;;;;;0.30;0.30;;;22.70;64.30;;;;;;4990738;28;20429;-39
2021/07/07 06:38:41;;;;;;;0.85;0.35;;;22.70;64.40;;;;;;4975828;28;20037;-28
2021/07/07 06:41:06;;;;;;;1.58;0.60;;;22.70;64.30;;;;;;4991864;28;20088;-27
2021/07/07 06:43:32;;;;;;;0.65;0.50;;;22.70;64.20;;;;;;4991272;28;20049;-30
2021/07/07 06:45:57;;;;;;;0.50;0.50;;;22.70;64.20;;;;;;4991909;28;20030;-32
2021/07/07 06:48:23;;;;;;;0.60;0.50;;;22.70;64.20;;;;;;4992023;28;20026;-30
2021/07/07 06:50:49;;;;;;;0.65;0.60;;;22.70;64.30;;;;;;4992236;28;20445;-30
2021/07/07 06:53:15;;;;;;;0.20;0.20;;;22.70;64.30;;;;;;4989950;28;20404;-28
2021/07/07 06:55:41;;;;;;;0.50;0.40;;;22.70;64.20;;;;;;4991882;28;20113;-29
2021/07/07 06:58:12;;;;;;;0.40;0.40;;;22.70;64.20;;;;;;4991231;28;20497;-30
2021/07/07 07:00:38;;;;;;;0.47;0.47;;;22.70;65.10;;;;;;4991179;28;20022;-29
2021/07/07 07:03:04;;;;;;;0.40;0.40;;;22.70;64.30;;;;;;4992035;28;20034;-32
2021/07/07 07:05:29;;;;;;;0.50;0.50;;;22.70;64.40;;;;;;4991469;28;20030;-31
2021/07/07 07:07:55;;;;;;;0.50;0.30;;;22.70;64.20;;;;;;4991435;28;20041;-33
2021/07/07 07:10:20;;;;;;;0.35;0.30;;;22.70;64.30;;;;;;4991760;28;20022;-31
2021/07/07 07:12:46;;;;;;;0.50;0.40;;;22.70;64.20;;;;;;4990701;28;20501;-27
2021/07/07 07:15:13;;;;;;;0.38;0.30;;;22.80;64.30;;;;;;4991755;28;20026;-28
2021/07/07 07:17:38;;;;;;;0.40;0.30;;;22.80;64.10;;;;;;4992203;28;20485;-37
2021/07/07 07:20:06;;;;;;;0.52;0.47;;;22.80;64.00;;;;;;4995900;28;20026;-31
2021/07/07 07:22:31;;;;;;;0.52;0.38;;;22.80;63.90;;;;;;4991316;28;20033;-33
2021/07/07 07:24:57;;;;;;;0.90;0.60;;;22.80;64.00;;;;;;4991593;28;20101;-29
2021/07/07 07:27:23;;;;;;;0.30;0.20;;;22.80;64.00;;;;;;4991070;28;20456;-36
2021/07/07 07:29:48;;;;;;;0.50;0.32;;;22.80;64.00;;;;;;4996693;28;20109;-29
2021/07/07 07:32:14;;;;;;;0.47;0.43;;;22.80;64.30;;;;;;4995114;28;20056;-31
2021/07/07 07:34:39;;;;;;;1.15;0.60;;;22.90;64.00;;;;;;5000135;28;20050;-30
2021/07/07 07:37:06;;;;;;;0.40;0.40;;;22.90;64.20;;;;;;4973360;28;20032;-29
2021/07/07 07:39:45;;;;;;;0.35;0.35;;;22.90;64.70;;;;;;5001327;28;20636;-34
2021/07/07 07:42:14;;;;;;;1.05;1.02;;;22.90;64.90;;;;;;4992282;28;20041;-33
2021/07/07 07:44:40;;;;;;;0.50;0.45;;;22.90;64.90;;;;;;4994494;28;20073;-29
2021/07/07 07:47:06;;;;;;;1.10;0.43;;;22.90;65.00;;;;;;4994556;28;20038;-29
2021/07/07 07:49:32;;;;;;;0.50;0.47;;;23.00;64.90;;;;;;4994200;28;20026;-32
2021/07/07 07:51:57;;;;;;;0.50;0.40;;;23.10;64.50;;;;;;4994312;28;20088;-28
2021/07/07 07:54:23;;;;;;;1.02;0.50;;;23.10;64.30;;;;;;4993587;28;20493;-32
2021/07/07 07:56:48;;;;;;;0.60;0.60;;;23.00;64.40;;;;;;4994988;28;20034;-33
2021/07/07 07:59:14;;;;;;;1.42;0.47;;;23.10;64.20;;;;;;4994610;28;20031;-30
2021/07/07 08:01:40;;;;;;;0.40;0.40;;;23.20;64.10;;;;;;4994331;28;20508;-33
2021/07/07 08:04:06;;;;;;;0.77;0.50;;;23.10;64.40;;;;;;5001075;28;20556;-33
2021/07/07 08:06:31;;;;;;;0.47;0.40;;;23.00;64.60;;;;;;5003306;28;20161;-28
2021/07/07 08:08:58;;;;;;;0.35;0.35;;;23.00;64.60;;;;;;4994678;28;20050;-33
2021/07/07 08:11:24;;;;;;;2.15;0.40;;;23.00;64.60;;;;;;4994490;28;20520;-30
2021/07/07 08:13:50;;;;;;;0.35;0.30;;;23.00;64.70;;;;;;4993761;28;20020;-34
2021/07/07 08:16:15;;;;;;;1.83;0.30;;;23.00;64.50;;;;;;4994226;28;20872;-34
2021/07/07 08:18:41;;;;;;;0.55;0.35;;;23.00;64.50;;;;;;4994428;28;20511;-33
2021/07/07 08:21:06;;;;;;;0.30;0.30;;;23.10;64.10;;;;;;4994627;28;20027;-32
2021/07/07 08:23:32;;;;;;;0.60;0.50;;;23.10;64.00;;;;;;4994441;28;20030;-31
2021/07/07 08:25:58;;;;;;;0.88;0.55;;;23.10;64.00;;;;;;4994276;28;20069;-33
2021/07/07 08:28:24;;;;;;;0.57;0.45;;;23.20;64.00;;;;;;4995156;28;20449;-31
2021/07/07 08:30:50;;;;;;;0.50;0.50;;;23.20;63.70;;;;;;4992597;28;20041;-30
2021/07/07 08:33:16;;;;;;;0.50;0.50;;;23.20;63.10;;;;;;4993670;28;20052;-33
2021/07/07 08:35:42;;;;;;;1.02;0.68;;;23.20;62.80;;;;;;4999249;28;20030;-41
2021/07/07 08:38:07;;;;;;;1.10;0.75;;;23.20;62.20;;;;;;4978080;28;20205;-35
2021/07/07 08:40:33;;;;;;;1.05;0.68;;;23.10;62.20;;;;;;4994107;28;20022;-30
2021/07/07 08:42:58;;;;;;;0.77;0.52;;;23.20;62.10;;;;;;4994980;28;20025;-29
2021/07/07 08:45:24;;;;;;;1.10;0.60;;;23.20;61.90;;;;;;4993808;28;20501;-30
2021/07/07 08:47:50;;;;;;;2.65;0.70;;;23.20;60.90;;;;;;4994507;28;20018;-30
2021/07/07 08:50:17;;;;;;;0.70;0.60;;;23.30;59.90;;;;;;4993437;28;20046;-34
2021/07/07 08:52:43;;;;;;;1.00;0.77;;;23.20;59.60;;;;;;4975445;28;20085;-31
2021/07/07 08:55:10;;;;;;;0.47;0.40;;;23.20;59.30;;;;;;4645757;28;10000692;-33
2021/07/07 08:57:46;;;;;;;2.42;0.80;;;23.30;59.00;;;;;;4990661;28;20023;-33
2021/07/07 09:00:30;;;;;;;2.13;0.90;;;23.30;58.40;;;;;;4989346;28;20776;-30
2021/07/07 09:03:03;;;;;;;0.95;0.60;;;23.20;58.00;;;;;;4988561;28;20025;-33
2021/07/07 09:05:29;;;;;;;4.50;0.90;;;23.20;58.10;;;;;;4982783;28;20038;-30
2021/07/07 09:08:02;;;;;;;1.00;0.68;;;23.20;57.50;;;;;;4989058;28;20026;-37
2021/07/07 09:10:31;;;;;;;1.08;0.63;;;23.20;57.50;;;;;;4972793;28;20026;-32
2021/07/07 09:13:13;;;;;;;3.45;0.70;;;23.20;57.30;;;;;;4989029;28;20057;-31
2021/07/07 09:15:39;;;;;;;1.65;0.70;;;23.20;57.20;;;;;;4975864;28;20030;-32
2021/07/07 09:18:05;;;;;;;1.75;0.60;;;23.20;57.10;;;;;;4989632;28;20030;-31
2021/07/07 09:20:37;;;;;;;1.35;0.77;;;23.20;57.00;;;;;;4985872;28;20027;-30
2021/07/07 09:23:19;;;;;;;1.08;0.60;;;23.40;57.30;;;;;;4985843;28;20096;-32
2021/07/07 09:25:49;;;;;;;1.02;0.60;;;23.30;57.40;;;;;;4984589;28;20033;-37
2021/07/07 09:28:20;;;;;;;1.42;0.65;;;23.20;57.70;;;;;;4987980;28;20485;-34
2021/07/07 09:30:46;;;;;;;1.38;0.90;;;23.20;58.00;;;;;;4991029;28;20789;-32
2021/07/07 09:33:11;;;;;;;1.75;0.70;;;23.10;58.80;;;;;;4992185;28;20133;-28
2021/07/07 09:35:37;;;;;;;0.90;0.57;;;23.20;58.90;;;;;;4993188;28;20034;-31
2021/07/07 09:38:05;;;;;;;2.00;0.52;;;23.10;58.60;;;;;;4976072;28;20378;-32
2021/07/07 09:40:30;;;;;;;2.22;0.65;;;23.20;59.10;;;;;;4992519;28;20061;-27
2021/07/07 09:42:56;;;;;;;1.42;0.40;;;23.20;58.50;;;;;;4991016;28;20504;-29
2021/07/07 09:45:22;;;;;;;0.63;0.52;;;23.20;58.60;;;;;;4991032;28;20039;-32
2021/07/07 09:47:48;;;;;;;1.60;0.68;;;23.20;58.00;;;;;;4992788;28;20031;-34
2021/07/07 09:50:15;;;;;;;1.80;0.65;;;23.20;58.30;;;;;;4990012;28;20057;-31
2021/07/07 09:52:40;;;;;;;0.93;0.80;;;23.20;59.50;;;;;;4985658;28;20038;-28
2021/07/07 09:55:10;;;;;;;0.75;0.70;;;23.30;58.50;;;;;;4954238;28;20038;-29
2021/07/07 09:57:46;;;;;;;2.65;0.63;;;23.20;59.10;;;;;;4964438;28;20104;-31
2021/07/07 10:00:17;;;;;;;1.42;0.65;;;23.20;58.80;;;;;;4965322;28;21565;-34
2021/07/07 10:02:42;;;;;;;1.00;0.80;;;23.20;58.50;;;;;;4963651;28;20050;-34
2021/07/07 10:05:09;;;;;;;0.77;0.52;;;23.20;58.90;;;;;;4952621;28;20126;-37
2021/07/07 10:07:35;;;;;;;0.80;0.65;;;23.20;58.70;;;;;;4937845;28;20044;-34
2021/07/07 10:10:00;;;;;;;1.30;0.68;;;23.20;58.70;;;;;;4960618;28;20034;-29
2021/07/07 10:12:27;;;;;;;1.27;0.60;;;23.20;58.60;;;;;;4950449;28;20853;-30
2021/07/07 10:14:53;;;;;;;0.93;0.88;;;23.20;58.50;;;;;;4948777;28;20521;-33
2021/07/07 10:17:18;;;;;;;0.82;0.70;;;23.30;59.10;;;;;;4949583;28;20149;-32
2021/07/07 10:19:44;;;;;;;0.82;0.70;;;23.30;58.80;;;;;;4956247;28;20129;-38
2021/07/07 10:22:09;;;;;;;1.35;0.90;;;23.30;58.10;;;;;;4955731;28;20037;-28
2021/07/07 10:24:35;;;;;;;1.65;0.90;;;23.30;58.10;;;;;;4953861;28;20042;-32
2021/07/07 10:27:03;;;;;;;0.65;0.60;;;23.30;58.20;;;;;;4934801;28;20066;-37
2021/07/07 10:29:29;;;;;;;1.77;0.90;;;23.30;57.80;;;;;;4962278;28;20469;-33
2021/07/07 10:31:59;;;;;;;1.00;0.90;;;23.40;57.50;;;;;;4955514;28;20042;-33
2021/07/07 10:34:27;;;;;;;1.67;0.82;;;23.40;57.90;;;;;;4958343;28;20050;-34
2021/07/07 10:36:53;;;;;;;0.85;0.80;;;23.40;58.00;;;;;;4955399;28;20105;-33
2021/07/07 10:39:19;;;;;;;1.20;0.82;;;23.30;57.40;;;;;;4955963;28;20109;-30
2021/07/07 10:41:47;;;;;;;2.38;0.65;;;23.40;58.00;;;;;;4955927;28;20031;-30
2021/07/07 10:44:21;;;;;;;1.05;0.70;;;23.40;57.50;;;;;;4956286;28;20514;-32
2021/07/07 10:46:57;;;;;;;0.70;0.70;;;23.40;57.50;;;;;;4954135;28;20054;-28
2021/07/07 10:49:30;;;;;;;1.15;0.82;;;23.40;57.50;;;;;;4955820;28;21533;-31
2021/07/07 10:51:57;;;;;;;0.75;0.63;;;23.40;57.30;;;;;;4955135;28;20039;-29
2021/07/07 10:54:24;;;;;;;3.45;0.60;;;23.30;57.30;;;;;;4956785;28;20790;-31
2021/07/07 10:56:51;;;;;;;0.88;0.60;;;23.30;57.10;;;;;;4950912;28;20073;-30
2021/07/07 10:59:43;;;;;;;1.33;0.80;;;23.30;57.30;;;;;;4955068;28;20055;-28
2021/07/07 11:02:15;;;;;;;1.27;0.85;;;23.30;57.20;;;;;;4975119;28;20049;-32
2021/07/07 11:04:53;;;;;;;2.15;0.63;;;23.30;57.20;;;;;;4957960;28;20027;-29
2021/07/07 11:07:38;;;;;;;0.80;0.80;;;23.30;57.30;;;;;;4964709;28;20109;-34
2021/07/07 11:10:13;;;;;;;1.23;1.00;;;23.30;57.00;;;;;;4959850;28;20675;-31
2021/07/07 11:12:42;;;;;;;1.40;1.30;;;23.40;57.40;;;;;;4972051;28;20981;-30
2021/07/07 11:15:08;;;;;;;2.72;2.53;;;23.30;57.20;;;;;;4964622;28;20671;-28
2021/07/07 11:17:38;;;;;;;2.90;2.70;;;23.30;57.50;;;;;;4964933;28;20085;-31
2021/07/07 11:20:15;;;;;;;3.58;2.60;;;23.40;57.70;;;;;;4968619;28;20418;-31
2021/07/07 11:22:57;;;;;;;2.70;2.50;;;23.30;57.30;;;;;;4971626;28;20042;-29
2021/07/07 11:25:23;;;;;;;2.80;1.90;;;23.30;57.70;;;;;;4975280;28;20109;-34
2021/07/07 11:27:48;;;;;;;2.28;2.13;;;23.30;57.70;;;;;;4941741;28;20920;-29
2021/07/07 11:30:15;;;;;;;3.35;1.65;;;23.30;57.60;;;;;;4976632;28;20038;-31
2021/07/07 11:32:45;;;;;;;1.92;1.83;;;23.30;57.70;;;;;;4965683;28;20050;-34
2021/07/07 11:35:16;;;;;;;2.15;1.95;;;23.30;57.60;;;;;;4973482;28;20028;-32
2021/07/07 11:37:42;;;;;;;1.55;1.45;;;23.30;57.30;;;;;;4969939;28;20030;-34
2021/07/07 11:40:17;;;;;;;1.30;1.20;;;23.30;57.10;;;;;;4976287;28;20037;-34
2021/07/07 11:43:05;;;;;;;1.45;1.20;;;23.30;57.40;;;;;;4976265;28;20038;-36
2021/07/07 11:45:36;;;;;;;1.58;1.00;;;23.30;57.20;;;;;;4961484;28;20141;-31
2021/07/07 11:51:14;;;;;;;1.23;1.13;;;23.30;57.40;;;;;;4894329;29;20040;-28
2021/07/07 11:53:43;;;;;;;1.35;0.95;;;23.40;57.60;;;;;;4894525;29;20059;-31
2021/07/07 11:56:10;;;;;;;2.80;0.98;;;23.50;57.70;;;;;;4893849;29;20032;-32
2021/07/07 11:58:41;;;;;;;1.10;1.00;;;23.50;57.50;;;;;;4898521;29;20048;-30
2021/07/07 12:01:20;;;;;;;1.17;1.08;;;23.50;57.20;;;;;;4899181;29;20043;-25
2021/07/07 12:04:15;;;;;;;3.80;1.30;;;23.50;57.40;;;;;;4898823;29;20032;-27
2021/07/07 12:06:44;;;;;;;1.35;0.93;;;23.50;57.40;;;;;;4894350;29;20060;-35
2021/07/07 12:09:18;;;;;;;1.48;0.80;;;23.50;57.60;;;;;;4898101;29;20076;-34
2021/07/07 12:12:00;;;;;;;2.47;0.95;;;23.60;57.90;;;;;;4903431;29;20761;-31
2021/07/07 12:14:28;;;;;;;1.33;0.90;;;23.70;57.40;;;;;;4904850;29;20071;-31
2021/07/07 12:16:53;;;;;;;2.05;0.95;;;23.70;57.50;;;;;;4899442;29;20039;-35
2021/07/07 12:19:19;;;;;;;0.80;0.80;;;23.70;57.70;;;;;;4897991;29;20431;-34
2021/07/07 12:21:45;;;;;;;2.25;0.88;;;23.80;57.70;;;;;;4899216;29;20039;-30
2021/07/07 12:24:17;;;;;;;1.77;0.75;;;23.70;58.10;;;;;;4907910;28;20523;-31
2021/07/07 12:26:44;;;;;;;2.13;0.85;;;23.70;57.80;;;;;;4962944;28;20055;-32
2021/07/07 12:29:21;;;;;;;0.85;0.70;;;23.70;58.10;;;;;;4968587;28;20030;-31
2021/07/07 12:31:48;;;;;;;3.15;0.90;;;23.80;58.20;;;;;;4969022;28;20517;-30
2021/07/07 12:34:16;;;;;;;1.08;0.90;;;23.80;58.40;;;;;;4965540;28;20090;-32
2021/07/07 12:36:43;;;;;;;3.13;1.05;;;23.80;58.50;;;;;;4961184;28;20117;-35
2021/07/07 12:39:17;;;;;;;1.02;0.75;;;23.80;58.50;;;;;;4956704;28;20045;-33
2021/07/07 12:41:46;;;;;;;0.80;0.80;;;23.80;58.70;;;;;;4965240;28;20043;-35
2021/07/07 12:44:12;;;;;;;1.05;0.90;;;23.80;58.70;;;;;;4965245;28;20038;-31
2021/07/07 12:46:54;;;;;;;1.17;0.95;;;23.70;58.80;;;;;;4955077;28;20080;-30
2021/07/07 12:49:35;;;;;;;1.13;0.80;;;23.70;58.90;;;;;;4968179;28;20054;-31